createdAt,value
2023-05-24T00:00:00.655Z,85
2023-05-24T00:05:00.820Z,85
2023-05-24T00:10:00.668Z,85
2023-05-24T00:15:00.663Z,86
2023-05-24T00:20:00.665Z,86
2023-05-24T00:25:00.727Z,87
2023-05-24T00:30:00.664Z,88
2023-05-24T00:35:00.682Z,88
2023-05-24T00:40:00.663Z,88
2023-05-24T00:45:00.668Z,89
2023-05-24T00:50:00.651Z,90
2023-05-24T00:55:00.814Z,90
2023-05-24T01:00:00.665Z,90
2023-05-24T01:05:00.671Z,90
2023-05-24T01:10:00.670Z,90
2023-05-24T01:15:00.668Z,89
2023-05-24T01:20:00.736Z,89
2023-05-24T01:25:00.668Z,89
2023-05-24T01:30:00.685Z,88
2023-05-24T01:35:00.679Z,88
2023-05-24T01:40:00.664Z,88
2023-05-24T01:45:00.688Z,88
2023-05-24T01:50:00.773Z,88
2023-05-24T01:55:00.640Z,88
2023-05-24T02:00:00.672Z,88
2023-05-24T02:05:00.686Z,88
2023-05-24T02:10:00.705Z,88
2023-05-24T02:15:00.689Z,89
2023-05-24T02:20:00.753Z,89
2023-05-24T02:25:00.656Z,89
2023-05-24T02:30:00.684Z,90
2023-05-24T02:35:00.655Z,90
2023-05-24T02:40:00.644Z,90
2023-05-24T02:45:00.782Z,90
2023-05-24T02:50:00.673Z,90
2023-05-24T02:55:00.756Z,90
2023-05-24T03:00:00.711Z,91
2023-05-24T03:05:00.639Z,91
2023-05-24T03:10:00.693Z,91
2023-05-24T03:15:00.653Z,91
2023-05-24T03:20:00.729Z,91
2023-05-24T03:25:00.689Z,91
2023-05-24T03:30:00.655Z,90
2023-05-24T03:35:00.694Z,90
2023-05-24T03:40:00.678Z,90
2023-05-24T03:45:00.785Z,90
2023-05-24T03:50:00.660Z,90
2023-05-24T03:55:00.692Z,89
2023-05-24T04:00:01.297Z,89
2023-05-24T04:05:00.673Z,89
2023-05-24T04:10:00.685Z,89
2023-05-24T04:15:00.674Z,89
2023-05-24T04:20:00.704Z,89
2023-05-24T04:25:00.750Z,88
2023-05-24T04:30:00.880Z,88
2023-05-24T04:35:00.714Z,88
2023-05-24T04:40:00.670Z,88
2023-05-24T04:45:00.729Z,88
2023-05-24T04:50:01.027Z,87
2023-05-24T04:55:00.805Z,87
2023-05-24T05:00:00.709Z,87
2023-05-24T05:05:00.667Z,87
2023-05-24T05:10:00.688Z,86
2023-05-24T05:15:00.713Z,86
2023-05-24T05:20:00.704Z,85
2023-05-24T05:25:00.669Z,85
2023-05-24T05:30:00.672Z,84
2023-05-24T05:35:00.661Z,83
2023-05-24T05:40:00.818Z,82
2023-05-24T05:45:00.680Z,81
2023-05-24T05:50:00.684Z,81
2023-05-24T05:55:00.669Z,80
2023-05-24T06:00:00.792Z,79
2023-05-24T06:05:00.815Z,78
2023-05-24T06:10:00.723Z,76
2023-05-24T06:15:00.686Z,76
2023-05-24T06:20:00.822Z,75
2023-05-24T06:25:01.057Z,75
2023-05-24T06:30:00.721Z,74
2023-05-24T06:35:00.667Z,75
2023-05-24T06:40:00.661Z,74
2023-05-24T06:45:00.945Z,73
2023-05-24T06:50:00.666Z,73
2023-05-24T06:55:00.674Z,72
2023-05-24T07:00:00.669Z,71
2023-05-24T07:05:00.711Z,70
2023-05-24T07:10:01.215Z,69
2023-05-24T07:15:00.667Z,69
2023-05-24T07:20:00.701Z,69
2023-05-24T07:25:00.661Z,69
2023-05-24T07:30:00.675Z,68
2023-05-24T07:35:00.680Z,68
2023-05-24T07:40:00.699Z,67
2023-05-24T07:45:00.653Z,68
2023-05-24T07:50:00.816Z,69
2023-05-24T07:55:00.731Z,69
2023-05-24T08:00:00.671Z,67
2023-05-24T08:05:00.668Z,66
2023-05-24T08:10:00.672Z,66
2023-05-24T08:15:00.696Z,68
2023-05-24T08:20:00.738Z,68
2023-05-24T08:25:00.660Z,68
2023-05-24T08:30:00.796Z,68
2023-05-24T08:35:18.318Z,67
2023-05-24T08:40:00.664Z,67
2023-05-24T08:45:00.694Z,67
2023-05-24T08:50:00.684Z,67
2023-05-24T08:55:00.674Z,66
2023-05-24T09:00:00.682Z,65
2023-05-24T09:05:00.906Z,64
2023-05-24T09:10:00.656Z,66
2023-05-24T09:15:00.690Z,66
2023-05-24T09:20:00.836Z,67
2023-05-24T09:25:00.691Z,67
2023-05-24T09:30:00.693Z,66
2023-05-24T09:35:00.686Z,65
2023-05-24T09:40:00.815Z,64
2023-05-24T09:45:00.647Z,64
2023-05-24T09:50:00.720Z,64
2023-05-24T09:55:00.654Z,64
2023-05-24T10:00:00.669Z,64
2023-05-24T10:05:00.802Z,65
2023-05-24T10:10:00.642Z,64
2023-05-24T10:15:00.648Z,65
2023-05-24T10:20:00.706Z,64
2023-05-24T10:25:00.647Z,65
2023-05-24T10:30:00.664Z,65
2023-05-24T10:35:00.683Z,63
2023-05-24T10:40:00.753Z,63
2023-05-24T10:45:00.663Z,63
2023-05-24T10:50:00.686Z,61
2023-05-24T10:55:04.286Z,59
2023-05-24T11:00:00.652Z,61
2023-05-24T11:05:00.695Z,61
2023-05-24T11:10:00.664Z,63
2023-05-24T11:15:00.669Z,60
2023-05-24T11:20:00.735Z,60
2023-05-24T11:25:00.682Z,62
2023-05-24T11:30:00.734Z,60
2023-05-24T11:35:00.711Z,58
2023-05-24T11:40:00.689Z,57
2023-05-24T11:45:00.637Z,59
2023-05-24T11:50:00.666Z,57
2023-05-24T11:55:00.701Z,56
2023-05-24T12:00:00.695Z,55
2023-05-24T12:05:00.971Z,55
2023-05-24T12:10:00.655Z,55
2023-05-24T12:15:00.687Z,56
2023-05-24T12:20:00.717Z,56
2023-05-24T12:25:00.729Z,57
2023-05-24T12:30:00.705Z,56
2023-05-24T12:35:00.672Z,57
2023-05-24T12:40:00.663Z,53
2023-05-24T12:45:00.697Z,54
2023-05-24T12:50:00.661Z,52
2023-05-24T12:55:00.656Z,54
2023-05-24T13:00:00.673Z,56
2023-05-24T13:05:00.884Z,52
2023-05-24T13:10:00.700Z,53
2023-05-24T13:15:00.727Z,56
2023-05-24T13:20:00.757Z,52
2023-05-24T13:25:00.711Z,52
2023-05-24T13:30:01.845Z,55
2023-05-24T13:35:00.681Z,57
2023-05-24T13:40:00.730Z,58
2023-05-24T13:45:00.761Z,58
2023-05-24T13:50:00.689Z,59
2023-05-24T13:55:00.683Z,59
2023-05-24T14:00:00.773Z,60
2023-05-24T14:05:17.376Z,60
2023-05-24T14:10:00.789Z,59
2023-05-24T14:15:00.707Z,60
2023-05-24T14:20:00.826Z,60
2023-05-24T14:25:00.905Z,62
2023-05-24T14:30:00.856Z,62
2023-05-24T14:35:00.640Z,63
2023-05-24T14:40:00.797Z,63
2023-05-24T14:45:00.721Z,62
2023-05-24T14:50:00.696Z,62
2023-05-24T14:55:00.672Z,62
2023-05-24T15:00:00.707Z,63
2023-05-24T15:05:00.673Z,63
2023-05-24T15:10:00.663Z,62
2023-05-24T15:15:00.671Z,62
2023-05-24T15:20:00.743Z,61
2023-05-24T15:25:00.675Z,61
2023-05-24T15:30:00.753Z,62
2023-05-24T15:35:00.684Z,62
2023-05-24T15:40:00.668Z,61
2023-05-24T15:45:00.697Z,61
2023-05-24T15:50:00.671Z,62
2023-05-24T15:55:00.658Z,62
2023-05-24T16:00:00.922Z,62
2023-05-24T16:05:00.692Z,61
2023-05-24T16:10:00.687Z,62
2023-05-24T16:15:00.972Z,62
2023-05-24T16:20:00.911Z,62
2023-05-24T16:25:00.714Z,61
2023-05-24T16:30:00.647Z,61
2023-05-24T16:35:00.700Z,61
2023-05-24T16:50:01.889Z,62
2023-05-24T16:55:01.195Z,62
2023-05-24T17:05:00.718Z,62
2023-05-24T17:10:00.610Z,62
2023-05-24T17:15:00.893Z,62
2023-05-24T17:20:00.768Z,62
2023-05-24T17:25:00.951Z,62
2023-05-24T17:30:00.876Z,63
2023-05-24T17:35:00.816Z,63
2023-05-24T17:40:00.765Z,63
2023-05-24T17:45:00.867Z,64
2023-05-24T17:50:00.843Z,64
2023-05-24T17:55:01.022Z,65
2023-05-24T18:00:00.843Z,65
2023-05-24T18:05:00.798Z,66
2023-05-24T18:10:00.866Z,66
2023-05-24T18:15:00.787Z,66
2023-05-24T18:20:01.058Z,66
2023-05-24T18:25:01.769Z,66
2023-05-24T18:30:00.776Z,67
2023-05-24T18:35:00.999Z,67
2023-05-24T18:40:00.831Z,68
2023-05-24T18:45:00.821Z,67
2023-05-24T18:50:01.005Z,68
2023-05-24T18:55:01.026Z,67
2023-05-24T19:00:00.646Z,68
2023-05-24T19:05:00.890Z,68
2023-05-24T19:10:00.698Z,69
2023-05-24T19:15:00.745Z,70
2023-05-24T19:20:00.988Z,70
2023-05-24T19:25:00.557Z,71
2023-05-24T19:30:00.704Z,71
2023-05-24T19:35:00.691Z,71
2023-05-24T19:40:00.697Z,72
2023-05-24T19:45:00.851Z,74
2023-05-24T19:50:01.175Z,75
2023-05-24T19:55:00.978Z,76
2023-05-24T20:00:00.749Z,77
2023-05-24T20:05:00.565Z,78
2023-05-24T20:10:00.769Z,78
2023-05-24T20:15:00.726Z,79
2023-05-24T20:20:00.795Z,80
2023-05-24T20:25:00.800Z,81
2023-05-24T20:30:00.804Z,81
2023-05-24T20:35:00.770Z,82
2023-05-24T20:40:00.883Z,83
2023-05-24T20:45:00.708Z,83
2023-05-24T20:50:02.234Z,83
2023-05-24T20:55:01.450Z,83
2023-05-24T21:00:00.896Z,82
2023-05-24T21:05:01.033Z,82
2023-05-24T21:10:01.099Z,82
2023-05-24T21:15:00.761Z,81
2023-05-24T21:20:00.764Z,81
2023-05-24T21:25:00.841Z,81
2023-05-24T21:30:01.249Z,82
2023-05-24T21:35:01.349Z,82
2023-05-24T21:40:00.762Z,82
2023-05-24T21:45:00.950Z,83
2023-05-24T21:50:00.816Z,83
2023-05-24T21:55:01.004Z,83
2023-05-24T22:00:00.868Z,84
2023-05-24T22:05:01.009Z,84
2023-05-24T22:10:00.692Z,84
2023-05-24T22:15:00.677Z,84
2023-05-24T22:20:00.997Z,85
2023-05-24T22:25:03.139Z,85
2023-05-24T22:30:00.681Z,85
2023-05-24T22:35:00.701Z,85
2023-05-24T22:40:00.754Z,85
2023-05-24T22:45:00.880Z,86
2023-05-24T22:50:00.929Z,86
2023-05-24T22:55:00.737Z,87
2023-05-24T23:00:00.885Z,87
2023-05-24T23:05:00.768Z,87
2023-05-24T23:10:00.880Z,88
2023-05-24T23:15:00.815Z,88
2023-05-24T23:20:00.880Z,88
2023-05-24T23:25:00.992Z,88
